createdAt,value
2018-07-22T00:02:14.257Z,13.27
2018-07-22T00:04:42.904Z,11.27
2018-07-22T00:07:11.590Z,13.20
2018-07-22T00:09:40.247Z,15.50
2018-07-22T00:12:09.166Z,15.20
2018-07-22T00:14:37.882Z,14.70
2018-07-22T00:17:06.784Z,27.87
2018-07-22T00:19:35.451Z,19.83
2018-07-22T00:22:04.170Z,20.33
2018-07-22T00:24:32.804Z,22.27
2018-07-22T00:27:01.426Z,18.50
2018-07-22T00:29:30.108Z,15.10
2018-07-22T00:31:58.867Z,19.40
2018-07-22T00:34:27.520Z,14.70
2018-07-22T00:36:56.244Z,17.13
2018-07-22T00:39:24.869Z,13.83
2018-07-22T00:41:53.532Z,20.00
2018-07-22T00:44:22.195Z,15.80
2018-07-22T00:46:50.854Z,18.03
2018-07-22T00:49:19.475Z,19.23
2018-07-22T00:51:48.157Z,21.10
2018-07-22T00:54:16.821Z,15.87
2018-07-22T00:56:45.487Z,16.67
2018-07-22T00:59:14.166Z,17.77
2018-07-22T01:01:42.864Z,21.03
2018-07-22T01:04:11.510Z,14.97
2018-07-22T01:06:40.152Z,13.90
2018-07-22T01:09:10.495Z,14.80
2018-07-22T01:11:39.281Z,18.53
2018-07-22T01:14:08.399Z,20.97
2018-07-22T01:16:37.195Z,17.57
2018-07-22T01:19:06.270Z,15.03
2018-07-22T01:21:34.943Z,16.07
2018-07-22T01:24:03.660Z,15.57
2018-07-22T01:26:32.347Z,14.57
2018-07-22T01:29:01.026Z,16.93
2018-07-22T01:31:29.645Z,15.10
2018-07-22T01:33:58.292Z,21.53
2018-07-22T01:36:26.966Z,20.47
2018-07-22T01:38:55.660Z,15.17
2018-07-22T01:41:24.391Z,19.67
2018-07-22T01:43:52.999Z,16.37
2018-07-22T01:46:21.656Z,15.63
2018-07-22T01:48:50.315Z,15.00
2018-07-22T01:51:18.998Z,15.17
2018-07-22T01:53:47.644Z,15.27
2018-07-22T01:56:16.283Z,16.60
2018-07-22T01:58:44.898Z,17.70
2018-07-22T02:01:13.573Z,18.03
2018-07-22T02:03:42.327Z,17.50
2018-07-22T02:06:11.063Z,18.73
2018-07-22T02:08:39.807Z,17.67
2018-07-22T02:11:08.472Z,17.17
2018-07-22T02:13:37.128Z,16.87
2018-07-22T02:16:05.845Z,17.37
2018-07-22T02:18:34.455Z,16.87
2018-07-22T02:21:03.102Z,17.20
2018-07-22T02:23:31.799Z,17.03
2018-07-22T02:26:00.459Z,17.33
2018-07-22T02:28:29.146Z,17.50
2018-07-22T02:30:57.768Z,17.43
2018-07-22T02:33:26.395Z,16.30
2018-07-22T02:35:55.026Z,17.53
2018-07-22T02:38:23.675Z,17.23
2018-07-22T02:40:52.307Z,16.83
2018-07-22T02:43:21.176Z,16.03
2018-07-22T02:45:49.846Z,16.90
2018-07-22T02:48:18.483Z,16.90
2018-07-22T02:50:47.119Z,15.93
2018-07-22T02:53:15.751Z,17.00
2018-07-22T02:55:44.362Z,15.43
2018-07-22T02:58:12.993Z,16.00
2018-07-22T03:00:41.626Z,15.30
2018-07-22T03:03:10.271Z,15.63
2018-07-22T03:05:38.941Z,18.23
2018-07-22T03:08:07.640Z,16.63
2018-07-22T03:10:36.307Z,19.10
2018-07-22T03:13:04.950Z,15.43
2018-07-22T03:15:33.606Z,16.23
2018-07-22T03:18:02.251Z,15.47
2018-07-22T03:20:30.889Z,15.70
2018-07-22T03:22:59.534Z,16.43
2018-07-22T03:25:28.156Z,15.33
2018-07-22T03:27:56.906Z,17.17
2018-07-22T03:30:25.575Z,15.63
2018-07-22T03:32:54.193Z,16.60
2018-07-22T03:35:22.974Z,16.80
2018-07-22T03:37:51.630Z,16.97
2018-07-22T03:40:20.266Z,17.13
2018-07-22T03:42:48.895Z,16.40
2018-07-22T03:45:17.509Z,15.60
2018-07-22T03:47:46.135Z,16.00
2018-07-22T03:50:14.891Z,15.60
2018-07-22T03:52:43.556Z,15.10
2018-07-22T03:55:12.203Z,15.00
2018-07-22T03:57:40.995Z,15.10
2018-07-22T04:00:09.720Z,14.53
2018-07-22T04:02:38.366Z,14.80
2018-07-22T04:05:07.326Z,15.43
2018-07-22T04:07:35.927Z,15.43
2018-07-22T04:10:04.658Z,15.43
2018-07-22T04:12:33.311Z,14.93
2018-07-22T04:15:01.961Z,16.27
2018-07-22T04:17:30.583Z,15.10
2018-07-22T04:19:59.334Z,15.40
2018-07-22T04:22:28.016Z,15.37
2018-07-22T04:24:56.762Z,14.60
2018-07-22T04:27:25.411Z,14.97
2018-07-22T04:29:54.028Z,15.07
2018-07-22T04:32:22.723Z,16.00
2018-07-22T04:34:51.366Z,17.00
2018-07-22T04:37:20.030Z,16.43
2018-07-22T04:39:48.668Z,16.97
2018-07-22T04:42:17.294Z,17.00
2018-07-22T04:44:45.986Z,15.50
2018-07-22T04:47:14.647Z,16.13
2018-07-22T04:49:43.294Z,16.67
2018-07-22T04:52:12.008Z,16.30
2018-07-22T04:54:40.643Z,17.03
2018-07-22T04:57:09.311Z,17.27
2018-07-22T04:59:37.985Z,16.33
2018-07-22T05:02:06.682Z,15.23
2018-07-22T05:04:35.323Z,16.37
2018-07-22T05:07:03.970Z,15.20
2018-07-22T05:09:32.606Z,15.80
2018-07-22T05:12:01.260Z,16.27
2018-07-22T05:14:29.895Z,15.70
2018-07-22T05:16:58.574Z,16.17
2018-07-22T05:19:27.211Z,14.30
2018-07-22T05:21:55.818Z,15.13
2018-07-22T05:24:24.459Z,15.93
2018-07-22T05:26:53.111Z,16.97
2018-07-22T05:29:21.774Z,17.03
2018-07-22T05:31:50.399Z,16.87
2018-07-22T05:34:19.128Z,15.60
2018-07-22T05:36:47.803Z,19.87
2018-07-22T05:39:16.481Z,14.80
2018-07-22T05:41:45.204Z,14.87
2018-07-22T05:44:13.843Z,15.98
2018-07-22T05:46:42.483Z,15.35
2018-07-22T05:49:11.116Z,15.43
2018-07-22T05:51:39.799Z,15.48
2018-07-22T05:54:08.520Z,16.42
2018-07-22T05:56:37.158Z,15.55
2018-07-22T05:59:06.021Z,15.85
2018-07-22T06:01:34.746Z,16.60
2018-07-22T06:04:03.431Z,16.00
2018-07-22T06:06:32.199Z,16.93
2018-07-22T06:09:00.871Z,16.10
2018-07-22T06:11:29.594Z,16.05
2018-07-22T06:13:58.279Z,16.60
2018-07-22T06:16:27.433Z,15.83
2018-07-22T06:18:56.099Z,20.57
2018-07-22T06:21:24.746Z,17.95
2018-07-22T06:23:53.374Z,16.87
2018-07-22T06:26:22.026Z,15.50
2018-07-22T06:28:50.695Z,17.02
2018-07-22T06:31:19.830Z,16.93
2018-07-22T06:33:48.443Z,17.02
2018-07-22T06:36:17.123Z,19.75
2018-07-22T06:38:45.736Z,15.53
2018-07-22T06:41:14.401Z,16.90
2018-07-22T06:43:43.071Z,15.33
2018-07-22T06:46:11.764Z,15.83
2018-07-22T06:48:40.353Z,16.45
2018-07-22T06:51:09.011Z,16.25
2018-07-22T06:53:37.756Z,15.83
2018-07-22T06:56:06.414Z,15.65
2018-07-22T06:58:35.113Z,14.78
2018-07-22T07:01:03.882Z,14.87
2018-07-22T07:03:32.527Z,16.12
2018-07-22T07:06:01.211Z,15.72
2018-07-22T07:08:29.884Z,17.62
2018-07-22T07:10:58.902Z,17.67
2018-07-22T07:13:27.563Z,15.80
2018-07-22T07:15:56.236Z,15.35
2018-07-22T07:18:24.920Z,17.95
2018-07-22T07:20:53.648Z,15.23
2018-07-22T07:23:22.329Z,15.78
2018-07-22T07:25:50.965Z,16.35
2018-07-22T07:28:19.697Z,15.60
2018-07-22T07:30:48.340Z,17.07
2018-07-22T07:33:17.097Z,16.10
2018-07-22T07:35:45.779Z,17.67
2018-07-22T07:38:14.428Z,15.80
2018-07-22T07:40:43.051Z,16.70
2018-07-22T07:43:11.732Z,14.83
2018-07-22T07:45:40.706Z,15.43
2018-07-22T07:48:11.550Z,16.32
2018-07-22T07:50:40.205Z,16.05
2018-07-22T07:53:08.868Z,15.18
2018-07-22T07:55:37.542Z,14.55
2018-07-22T07:58:06.340Z,15.78
2018-07-22T08:00:36.343Z,14.73
2018-07-22T08:03:05.625Z,15.53
2018-07-22T08:05:34.317Z,14.43
2018-07-22T08:08:03.303Z,15.32
2018-07-22T08:10:32.124Z,14.40
2018-07-22T08:13:01.075Z,15.20
2018-07-22T08:15:29.850Z,15.48
2018-07-22T08:17:59.642Z,13.35
2018-07-22T08:20:29.229Z,14.15
2018-07-22T08:22:58.255Z,14.18
2018-07-22T08:25:28.110Z,14.03
2018-07-22T08:27:56.977Z,13.60
2018-07-22T08:30:26.338Z,13.65
2018-07-22T08:32:56.148Z,13.40
2018-07-22T08:35:25.006Z,12.82
2018-07-22T08:37:53.859Z,12.85
2018-07-22T08:40:22.839Z,13.32
2018-07-22T08:42:53.269Z,13.60
2018-07-22T08:45:22.111Z,13.15
2018-07-22T08:47:51.120Z,13.43
2018-07-22T08:50:20.540Z,13.38
2018-07-22T08:52:49.222Z,14.75
2018-07-22T08:55:18.431Z,13.95
2018-07-22T08:57:47.692Z,13.68
2018-07-22T09:00:17.037Z,13.70
2018-07-22T09:02:46.020Z,14.25
2018-07-22T09:05:14.911Z,14.03
2018-07-22T09:07:43.844Z,13.68
2018-07-22T09:10:12.600Z,13.60
2018-07-22T09:12:41.609Z,12.53
2018-07-22T09:15:10.356Z,13.35
2018-07-22T09:17:39.484Z,13.40
2018-07-22T09:20:08.235Z,13.65
2018-07-22T09:22:37.568Z,13.72
2018-07-22T09:25:06.569Z,13.80
2018-07-22T09:27:35.459Z,13.38
2018-07-22T09:30:05.557Z,14.00
2018-07-22T09:32:34.622Z,14.65
2018-07-22T09:35:03.414Z,13.10
2018-07-22T09:37:32.124Z,12.93
2018-07-22T09:40:01.372Z,13.28
2018-07-22T09:42:30.155Z,13.22
2018-07-22T09:44:59.227Z,13.80
2018-07-22T09:47:28.534Z,12.70
2018-07-22T09:49:57.923Z,13.05
2018-07-22T09:52:26.642Z,13.03
2018-07-22T09:54:55.523Z,14.33
2018-07-22T09:57:25.169Z,14.00
2018-07-22T09:59:54.104Z,13.72
2018-07-22T10:02:23.168Z,13.98
2018-07-22T10:04:53.101Z,14.63
2018-07-22T10:07:22.051Z,13.98
2018-07-22T10:09:51.311Z,15.35
2018-07-22T10:12:20.191Z,12.68
2018-07-22T10:14:49.265Z,13.85
2018-07-22T10:17:18.880Z,13.72
2018-07-22T10:19:47.708Z,13.28
2018-07-22T10:22:16.897Z,13.20
2018-07-22T10:24:45.710Z,12.45
2018-07-22T10:27:15.376Z,13.20
2018-07-22T10:29:44.119Z,12.63
2018-07-22T10:32:13.331Z,12.15
2018-07-22T10:34:42.317Z,12.45
2018-07-22T10:37:11.992Z,13.75
2018-07-22T10:39:40.718Z,13.08
2018-07-22T10:42:10.490Z,13.45
2018-07-22T10:44:39.619Z,12.60
2018-07-22T10:47:08.702Z,13.72
2018-07-22T10:49:38.375Z,12.88
2018-07-22T10:52:07.558Z,14.25
2018-07-22T10:54:37.217Z,14.33
2018-07-22T10:57:06.510Z,14.40
2018-07-22T10:59:35.574Z,13.13
2018-07-22T11:02:05.114Z,13.38
2018-07-22T11:04:33.898Z,12.05
2018-07-22T11:07:03.156Z,15.25
2018-07-22T11:09:31.914Z,11.90
2018-07-22T11:12:00.841Z,11.65
2018-07-22T11:14:30.418Z,13.35
2018-07-22T11:17:00.356Z,11.90
2018-07-22T11:19:29.298Z,13.15
2018-07-22T11:21:58.351Z,13.35
2018-07-22T11:24:27.469Z,11.25
2018-07-22T11:26:56.175Z,13.48
2018-07-22T11:29:25.399Z,12.75
2018-07-22T11:31:54.286Z,12.90
2018-07-22T11:34:23.040Z,12.93
2018-07-22T11:36:52.459Z,13.60
2018-07-22T11:39:21.344Z,11.50
2018-07-22T11:41:50.375Z,11.43
2018-07-22T11:44:19.429Z,11.70
2018-07-22T11:46:48.474Z,12.03
2018-07-22T11:49:17.730Z,11.90
2018-07-22T11:51:46.755Z,11.00
2018-07-22T11:54:15.761Z,11.85
2018-07-22T11:56:44.766Z,12.10
2018-07-22T11:59:13.854Z,12.68
2018-07-22T12:01:42.704Z,12.82
2018-07-22T12:04:11.804Z,12.07
2018-07-22T12:06:40.631Z,11.33
2018-07-22T12:09:11.380Z,10.88
2018-07-22T12:11:40.543Z,11.70
2018-07-22T12:14:09.295Z,11.78
2018-07-22T12:16:37.946Z,11.25
2018-07-22T12:19:06.887Z,11.70
2018-07-22T12:21:35.607Z,10.93
2018-07-22T12:24:04.294Z,12.05
2018-07-22T12:26:32.958Z,11.75
2018-07-22T12:29:01.683Z,11.88
2018-07-22T12:31:30.315Z,11.33
2018-07-22T12:33:59.010Z,12.60
2018-07-22T12:36:27.702Z,11.25
2018-07-22T12:38:56.355Z,14.55
2018-07-22T12:41:25.030Z,11.57
2018-07-22T12:43:53.729Z,11.80
2018-07-22T12:46:22.420Z,12.10
2018-07-22T12:48:51.039Z,11.38
2018-07-22T12:51:19.766Z,12.88
2018-07-22T12:53:48.462Z,12.85
2018-07-22T12:56:17.088Z,11.48
2018-07-22T12:58:45.828Z,13.03
2018-07-22T13:01:14.515Z,12.33
2018-07-22T13:03:44.738Z,12.50
2018-07-22T13:06:13.442Z,16.77
2018-07-22T13:08:42.089Z,13.55
2018-07-22T13:11:10.740Z,13.38
2018-07-22T13:13:39.386Z,16.20
2018-07-22T13:16:08.250Z,33.00
2018-07-22T13:18:36.874Z,16.45
2018-07-22T13:21:05.535Z,17.65
2018-07-22T13:23:34.265Z,17.30
2018-07-22T13:26:02.975Z,14.73
2018-07-22T13:28:31.731Z,12.25
2018-07-22T13:31:00.487Z,13.53
2018-07-22T13:33:29.183Z,13.87
2018-07-22T13:35:58.104Z,12.87
2018-07-22T13:38:26.848Z,11.47
2018-07-22T13:40:55.542Z,11.67
2018-07-22T13:43:24.253Z,14.25
2018-07-22T13:45:52.929Z,13.00
2018-07-22T13:48:21.759Z,13.22
2018-07-22T13:50:50.443Z,12.80
2018-07-22T13:53:19.185Z,16.40
2018-07-22T13:55:48.187Z,13.40
2018-07-22T13:58:17.194Z,12.47
2018-07-22T14:00:45.842Z,12.95
2018-07-22T14:03:14.666Z,12.88
2018-07-22T14:05:43.366Z,12.45
2018-07-22T14:08:12.044Z,15.90
2018-07-22T14:10:40.689Z,11.00
2018-07-22T14:13:09.498Z,10.70
2018-07-22T14:15:38.254Z,12.63
2018-07-22T14:18:06.931Z,11.57
2018-07-22T14:20:35.619Z,11.53
2018-07-22T14:23:04.302Z,10.75
2018-07-22T14:25:33.081Z,12.80
2018-07-22T14:28:01.768Z,9.68
2018-07-22T14:30:30.423Z,9.88
2018-07-22T14:32:59.086Z,8.50
2018-07-22T14:35:27.774Z,8.68
2018-07-22T14:37:56.442Z,10.25
2018-07-22T14:40:25.103Z,8.73
2018-07-22T14:42:53.782Z,15.40
2018-07-22T14:45:22.476Z,10.25
2018-07-22T14:47:51.199Z,12.93
2018-07-22T14:50:19.846Z,10.45
2018-07-22T14:52:48.559Z,12.28
2018-07-22T14:55:17.300Z,9.80
2018-07-22T14:57:45.951Z,14.80
2018-07-22T15:00:15.824Z,11.40
2018-07-22T15:02:44.547Z,9.63
2018-07-22T15:05:13.192Z,11.95
2018-07-22T15:07:41.827Z,9.20
2018-07-22T15:10:10.799Z,9.85
2018-07-22T15:12:39.494Z,10.78
2018-07-22T15:15:08.218Z,11.80
2018-07-22T15:17:36.905Z,11.90
2018-07-22T15:20:06.069Z,13.40
2018-07-22T15:22:34.767Z,10.15
2018-07-22T15:25:03.469Z,11.50
2018-07-22T15:27:32.132Z,10.30
2018-07-22T15:30:00.876Z,10.60
2018-07-22T15:32:29.562Z,9.65
2018-07-22T15:34:58.226Z,9.33
2018-07-22T15:37:26.921Z,11.68
2018-07-22T15:39:55.562Z,14.98
2018-07-22T15:42:25.547Z,10.98
2018-07-22T15:44:55.024Z,8.78
2018-07-22T15:47:23.893Z,14.03
2018-07-22T15:49:52.780Z,11.48
2018-07-22T15:52:21.624Z,9.63
2018-07-22T15:54:50.483Z,15.30
2018-07-22T15:57:19.299Z,10.32
2018-07-22T15:59:48.180Z,17.45
2018-07-22T16:02:17.283Z,9.60
2018-07-22T16:04:46.224Z,13.60
2018-07-22T16:07:14.890Z,9.70
2018-07-22T16:09:43.804Z,10.38
2018-07-22T16:12:12.794Z,11.97
2018-07-22T16:14:41.618Z,10.28
2018-07-22T16:17:10.636Z,11.22
2018-07-22T16:19:39.598Z,15.20
2018-07-22T16:22:08.315Z,10.68
2018-07-22T16:24:37.745Z,10.87
2018-07-22T16:27:06.492Z,9.97
2018-07-22T16:29:35.783Z,12.27
2018-07-22T16:32:04.450Z,11.73
2018-07-22T16:34:33.093Z,13.77
2018-07-22T16:37:01.793Z,13.17
2018-07-22T16:39:30.662Z,11.13
2018-07-22T16:41:59.355Z,9.33
2018-07-22T16:44:28.048Z,9.87
2018-07-22T16:46:56.784Z,12.50
2018-07-22T16:49:26.131Z,8.77
2018-07-22T16:51:55.003Z,7.50
2018-07-22T16:54:23.996Z,8.00
2018-07-22T16:56:52.704Z,8.40
2018-07-22T16:59:21.611Z,9.23
2018-07-22T17:01:50.438Z,12.20
2018-07-22T17:04:19.279Z,10.20
2018-07-22T17:06:48.164Z,8.97
2018-07-22T17:09:17.023Z,10.70
2018-07-22T17:11:45.943Z,13.37
2018-07-22T17:14:14.815Z,14.07
2018-07-22T17:16:43.659Z,12.80
2018-07-22T17:19:12.494Z,10.20
2018-07-22T17:21:41.327Z,11.33
2018-07-22T17:24:10.791Z,11.87
2018-07-22T17:26:39.595Z,12.30
2018-07-22T17:29:08.439Z,13.27
2018-07-22T17:31:37.310Z,10.73
2018-07-22T17:34:06.175Z,10.00
2018-07-22T17:36:34.991Z,10.37
2018-07-22T17:39:06.915Z,13.40
2018-07-22T17:41:35.816Z,13.17
2018-07-22T17:44:04.772Z,12.97
2018-07-22T17:46:33.571Z,10.23
2018-07-22T17:49:02.615Z,12.63
2018-07-22T17:51:31.464Z,12.97
2018-07-22T17:54:00.506Z,12.90
2018-07-22T17:56:29.391Z,16.30
2018-07-22T17:58:58.216Z,9.77
2018-07-22T18:01:27.190Z,7.70
2018-07-22T18:03:56.263Z,11.33
2018-07-22T18:06:25.097Z,8.23
2018-07-22T18:08:53.920Z,8.83
2018-07-22T18:11:23.727Z,8.43
2018-07-22T18:13:52.564Z,9.57
2018-07-22T18:16:21.663Z,9.77
2018-07-22T18:18:50.522Z,11.87
2018-07-22T18:21:19.474Z,9.73
2018-07-22T18:23:48.878Z,10.63
2018-07-22T18:26:17.835Z,11.30
2018-07-22T18:28:46.724Z,14.27
2018-07-22T18:31:15.556Z,8.60
2018-07-22T18:33:44.471Z,10.20
2018-07-22T18:36:13.405Z,9.80
2018-07-22T18:38:42.406Z,11.50
2018-07-22T18:41:11.279Z,9.43
2018-07-22T18:43:40.136Z,13.47
2018-07-22T18:46:09.012Z,12.90
2018-07-22T18:48:38.089Z,13.63
2018-07-22T18:51:06.960Z,12.60
2018-07-22T18:53:35.878Z,11.50
2018-07-22T18:56:04.964Z,11.27
2018-07-22T18:58:33.808Z,15.07
2018-07-22T19:01:02.648Z,10.03
2018-07-22T19:03:32.403Z,9.33
2018-07-22T19:06:01.441Z,12.50
2018-07-22T19:08:30.207Z,14.27
2018-07-22T19:10:58.863Z,10.17
2018-07-22T19:13:28.230Z,9.40
2018-07-22T19:15:57.012Z,12.83
2018-07-22T19:18:25.883Z,9.30
2018-07-22T19:20:54.539Z,12.77
2018-07-22T19:23:24.220Z,16.37
2018-07-22T19:25:53.974Z,17.60
2018-07-22T19:28:22.919Z,11.13
2018-07-22T19:30:51.756Z,12.40
2018-07-22T19:33:20.750Z,10.00
2018-07-22T19:35:49.618Z,11.50
2018-07-22T19:38:18.425Z,14.17
2018-07-22T19:40:47.212Z,16.17
2018-07-22T19:43:16.158Z,13.30
2018-07-22T19:45:45.091Z,14.33
2018-07-22T19:48:13.834Z,13.07
2018-07-22T19:50:42.649Z,16.23
2018-07-22T19:53:11.439Z,10.23
2018-07-22T19:55:40.206Z,13.07
2018-07-22T19:58:09.021Z,13.87
2018-07-22T20:00:37.900Z,13.10
2018-07-22T20:03:06.967Z,18.57
2018-07-22T20:05:35.905Z,14.23
2018-07-22T20:08:04.767Z,12.13
2018-07-22T20:10:33.551Z,13.57
2018-07-22T20:13:02.385Z,12.07
2018-07-22T20:15:31.099Z,12.87
2018-07-22T20:17:59.901Z,11.23
2018-07-22T20:20:28.710Z,13.27
2018-07-22T20:22:57.560Z,12.30
2018-07-22T20:25:26.356Z,11.17
2018-07-22T20:27:55.118Z,15.53
2018-07-22T20:30:24.209Z,10.77
2018-07-22T20:32:53.586Z,10.93
2018-07-22T20:35:22.338Z,10.43
2018-07-22T20:37:51.150Z,10.53
2018-07-22T20:40:19.955Z,9.80
2018-07-22T20:42:48.754Z,10.53
2018-07-22T20:45:17.586Z,10.40
2018-07-22T20:47:46.502Z,10.13
2018-07-22T20:50:15.546Z,10.17
2018-07-22T20:52:44.362Z,11.63
2018-07-22T20:55:13.262Z,10.57
2018-07-22T20:57:42.047Z,15.63
2018-07-22T21:00:10.906Z,12.87
2018-07-22T21:02:40.023Z,10.33
2018-07-22T21:05:08.880Z,9.70
2018-07-22T21:07:37.674Z,10.93
2018-07-22T21:10:06.804Z,10.27
2018-07-22T21:12:47.790Z,14.60
2018-07-22T21:15:17.045Z,10.77
2018-07-22T21:17:47.102Z,11.07
2018-07-22T21:20:16.661Z,12.70
2018-07-22T21:22:45.380Z,12.10
2018-07-22T21:25:14.772Z,15.57
2018-07-22T21:27:43.637Z,13.87
2018-07-22T21:30:13.062Z,12.37
2018-07-22T21:32:42.056Z,13.50
2018-07-22T21:35:11.846Z,11.43
2018-07-22T21:37:40.778Z,10.23
2018-07-22T21:40:09.830Z,11.20
2018-07-22T21:42:38.630Z,10.50
2018-07-22T21:45:08.259Z,12.47
2018-07-22T21:47:37.399Z,12.37
2018-07-22T21:50:06.731Z,10.57
2018-07-22T21:52:35.575Z,10.90
2018-07-22T21:55:04.427Z,11.27
2018-07-22T21:57:33.226Z,13.80
2018-07-22T22:00:02.039Z,11.30
2018-07-22T22:02:32.983Z,12.87
2018-07-22T22:05:02.991Z,14.37
2018-07-22T22:07:32.263Z,12.37
2018-07-22T22:10:01.672Z,15.70
2018-07-22T22:12:30.297Z,14.37
2018-07-22T22:14:59.068Z,20.40
2018-07-22T22:17:28.142Z,13.40
2018-07-22T22:19:57.184Z,15.53
2018-07-22T22:22:26.036Z,12.73
2018-07-22T22:24:54.840Z,12.57
2018-07-22T22:27:23.803Z,13.97
2018-07-22T22:29:52.638Z,12.67
2018-07-22T22:32:21.431Z,13.93
2018-07-22T22:34:50.510Z,12.27
2018-07-22T22:37:19.551Z,12.40
2018-07-22T22:39:48.350Z,14.03
2018-07-22T22:42:17.151Z,12.67
2018-07-22T22:44:45.939Z,13.63
2018-07-22T22:47:14.722Z,11.83
2018-07-22T22:49:43.526Z,12.53
2018-07-22T22:52:12.315Z,12.30
2018-07-22T22:54:41.140Z,13.20
2018-07-22T22:57:09.970Z,10.67
2018-07-22T22:59:38.770Z,11.30
2018-07-22T23:02:07.671Z,10.00
2018-07-22T23:04:36.500Z,12.27
2018-07-22T23:07:05.312Z,10.53
2018-07-22T23:09:34.332Z,13.30
2018-07-22T23:12:03.526Z,10.93
2018-07-22T23:14:32.987Z,12.67
2018-07-22T23:17:01.846Z,9.47
2018-07-22T23:19:30.927Z,11.27
2018-07-22T23:21:59.706Z,9.77
2018-07-22T23:24:28.608Z,10.27
2018-07-22T23:26:57.461Z,9.40
2018-07-22T23:29:26.264Z,9.93
2018-07-22T23:31:55.143Z,9.70
2018-07-22T23:34:23.959Z,9.83
2018-07-22T23:36:52.788Z,9.73
2018-07-22T23:39:22.334Z,9.57
2018-07-22T23:41:51.331Z,9.93
2018-07-22T23:44:20.278Z,9.10
2018-07-22T23:46:49.278Z,9.30
2018-07-22T23:49:18.052Z,10.97
2018-07-22T23:51:46.919Z,10.53
2018-07-22T23:54:15.687Z,10.20
2018-07-22T23:56:44.496Z,9.07
2018-07-22T23:59:13.238Z,9.47
